GOSIM LXGB-EGLF
Flight info
| Callsign | GOSIM |
|---|---|
| Flight time | 2h 25m |
| Altitude | 42000 |
| Route | PIMOS N869 BLN N865 VTB N867 NENEM DCT YURZI DCT ERIGA DCT REVTU UP87 BOLRO UP83 KATHY |
| Aircraft | C700/M-SBDGHM1RWXY/LB2 |
Departure
| Time | 2026-04-23 15:39 |
|---|---|
| Airport | Gibraltar Airport (LXGB) |
Arrival
| Time | 2026-04-23 18:05 |
|---|---|
| Airport | Farnborough Airport (EGLF) |
| Time | Latitude | Longitude | Altitude | Speed | Heading |
|---|---|---|---|---|---|
| 2026-04-23 15:18 | 36.15289 | -5.34353 | 9 ft | 0 kts | 316° |
| 2026-04-23 15:32 | 36.15291 | -5.34361 | 9 ft | 1 kts | 269° |
| 2026-04-23 15:33 | 36.15256 | -5.34385 | 9 ft | 11 kts | 201° |
| 2026-04-23 15:33 | 36.15230 | -5.34507 | 11 ft | 20 kts | 264° |
| 2026-04-23 15:33 | 36.15225 | -5.34652 | 13 ft | 4 kts | 246° |
| 2026-04-23 15:33 | 36.15224 | -5.34652 | 13 ft | 0 kts | 246° |
| 2026-04-23 15:34 | 36.15210 | -5.34669 | 14 ft | 7 kts | 208° |
| 2026-04-23 15:34 | 36.15145 | -5.34697 | 14 ft | 15 kts | 230° |
| 2026-04-23 15:34 | 36.15125 | -5.34856 | 15 ft | 23 kts | 270° |
| 2026-04-23 15:34 | 36.15118 | -5.35090 | 16 ft | 31 kts | 267° |
| 2026-04-23 15:35 | 36.15108 | -5.35386 | 16 ft | 38 kts | 267° |
| 2026-04-23 15:35 | 36.15094 | -5.35738 | 13 ft | 43 kts | 267° |
| 2026-04-23 15:35 | 36.15089 | -5.35800 | 13 ft | 4 kts | 249° |
| 2026-04-23 15:35 | 36.15074 | -5.35848 | 13 ft | 8 kts | 252° |
| 2026-04-23 15:36 | 36.15072 | -5.35924 | 13 ft | 10 kts | 301° |
| 2026-04-23 15:36 | 36.15087 | -5.35922 | 13 ft | 2 kts | 71° |
| 2026-04-23 15:36 | 36.15091 | -5.35885 | 13 ft | 6 kts | 86° |
| 2026-04-23 15:36 | 36.15091 | -5.35881 | 13 ft | 0 kts | 87° |
| 2026-04-23 15:39 | 36.15099 | -5.35654 | 14 ft | 59 kts | 88° |
| 2026-04-23 15:39 | 36.15129 | -5.34892 | 28 ft | 114 kts | 88° |
| 2026-04-23 15:39 | 36.15193 | -5.33859 | 395 ft | 126 kts | 86° |
| 2026-04-23 15:39 | 36.15264 | -5.32596 | 907 ft | 172 kts | 87° |
| 2026-04-23 15:40 | 36.15218 | -5.30933 | 1493 ft | 199 kts | 94° |
| 2026-04-23 15:40 | 36.15106 | -5.29181 | 2059 ft | 213 kts | 93° |
| 2026-04-23 15:40 | 36.15080 | -5.27345 | 2623 ft | 213 kts | 90° |
| 2026-04-23 15:40 | 36.15098 | -5.25483 | 3168 ft | 220 kts | 90° |
| 2026-04-23 15:41 | 36.15098 | -5.23602 | 3697 ft | 219 kts | 91° |
| 2026-04-23 15:41 | 36.15094 | -5.21679 | 4222 ft | 223 kts | 91° |
| 2026-04-23 15:41 | 36.15097 | -5.19824 | 5419 ft | 215 kts | 92° |
| 2026-04-23 15:41 | 36.15095 | -5.17979 | 6676 ft | 220 kts | 93° |
| 2026-04-23 15:42 | 36.15090 | -5.16061 | 7840 ft | 226 kts | 93° |
| 2026-04-23 15:42 | 36.15088 | -5.14074 | 8960 ft | 240 kts | 93° |
| 2026-04-23 15:42 | 36.15081 | -5.11893 | 9872 ft | 267 kts | 94° |
| 2026-04-23 15:42 | 36.15078 | -5.09478 | 10706 ft | 294 kts | 93° |
| 2026-04-23 15:43 | 36.15074 | -5.06831 | 11551 ft | 321 kts | 93° |
| 2026-04-23 15:43 | 36.15074 | -5.04027 | 12911 ft | 327 kts | 93° |
| 2026-04-23 15:43 | 36.15070 | -5.01190 | 14343 ft | 333 kts | 94° |
| 2026-04-23 15:43 | 36.15061 | -4.98284 | 15562 ft | 342 kts | 94° |
| 2026-04-23 15:44 | 36.15160 | -4.95308 | 16771 ft | 353 kts | 85° |
| 2026-04-23 15:44 | 36.15784 | -4.92323 | 17994 ft | 364 kts | 72° |
| 2026-04-23 15:44 | 36.16931 | -4.89482 | 19086 ft | 374 kts | 59° |
| 2026-04-23 15:44 | 36.18586 | -4.86956 | 20146 ft | 382 kts | 46° |
| 2026-04-23 15:45 | 36.20692 | -4.84905 | 21129 ft | 389 kts | 33° |
| 2026-04-23 15:45 | 36.23006 | -4.83115 | 22074 ft | 396 kts | 33° |
| 2026-04-23 15:45 | 36.24587 | -4.81882 | 22727 ft | 399 kts | 33° |
| 2026-04-23 15:45 | 36.26923 | -4.80050 | 23656 ft | 405 kts | 33° |
| 2026-04-23 15:46 | 36.29318 | -4.78168 | 24459 ft | 411 kts | 33° |
| 2026-04-23 15:46 | 36.31749 | -4.76261 | 25250 ft | 416 kts | 33° |
| 2026-04-23 15:46 | 36.34213 | -4.74329 | 26024 ft | 422 kts | 33° |
| 2026-04-23 15:46 | 36.36706 | -4.72369 | 26781 ft | 427 kts | 33° |
| 2026-04-23 15:47 | 36.39230 | -4.70383 | 27533 ft | 432 kts | 33° |
| 2026-04-23 15:47 | 36.41785 | -4.68372 | 28270 ft | 437 kts | 33° |
| 2026-04-23 15:47 | 36.44370 | -4.66336 | 29003 ft | 443 kts | 33° |
| 2026-04-23 15:47 | 36.46984 | -4.64275 | 29733 ft | 448 kts | 33° |
| 2026-04-23 15:48 | 36.49632 | -4.62186 | 30401 ft | 453 kts | 33° |
| 2026-04-23 15:48 | 36.52299 | -4.60079 | 31027 ft | 457 kts | 33° |
| 2026-04-23 15:48 | 36.54991 | -4.57952 | 31630 ft | 460 kts | 33° |
| 2026-04-23 15:48 | 36.57705 | -4.55805 | 32197 ft | 464 kts | 33° |
| 2026-04-23 15:49 | 36.60440 | -4.53639 | 32774 ft | 468 kts | 33° |
| 2026-04-23 15:49 | 36.63197 | -4.51455 | 33333 ft | 471 kts | 33° |
| 2026-04-23 15:49 | 36.65952 | -4.49271 | 34077 ft | 468 kts | 33° |
| 2026-04-23 15:49 | 36.68697 | -4.47092 | 34662 ft | 468 kts | 33° |
| 2026-04-23 15:50 | 36.71440 | -4.44912 | 35216 ft | 468 kts | 33° |
| 2026-04-23 15:50 | 36.74185 | -4.42730 | 35742 ft | 467 kts | 32° |
| 2026-04-23 15:50 | 36.76922 | -4.40553 | 36282 ft | 467 kts | 32° |
| 2026-04-23 15:50 | 36.79662 | -4.38371 | 36781 ft | 467 kts | 32° |
| 2026-04-23 15:51 | 36.82474 | -4.36363 | 37250 ft | 465 kts | 23° |
| 2026-04-23 15:51 | 36.85443 | -4.34775 | 37705 ft | 464 kts | 21° |
| 2026-04-23 15:51 | 36.88404 | -4.33176 | 38139 ft | 464 kts | 22° |
| 2026-04-23 15:51 | 36.91308 | -4.31560 | 38573 ft | 462 kts | 22° |
| 2026-04-23 15:52 | 36.94245 | -4.29937 | 38885 ft | 462 kts | 21° |
| 2026-04-23 15:52 | 36.97198 | -4.28333 | 39185 ft | 462 kts | 21° |
| 2026-04-23 15:52 | 37.00139 | -4.26730 | 39482 ft | 462 kts | 21° |
| 2026-04-23 15:52 | 37.03082 | -4.25107 | 39764 ft | 462 kts | 21° |
| 2026-04-23 15:53 | 37.06016 | -4.23488 | 40047 ft | 461 kts | 21° |
| 2026-04-23 15:53 | 37.08957 | -4.21874 | 40337 ft | 461 kts | 21° |
| 2026-04-23 15:53 | 37.11895 | -4.20262 | 40623 ft | 460 kts | 21° |
| 2026-04-23 15:53 | 37.14825 | -4.18646 | 40902 ft | 460 kts | 21° |
| 2026-04-23 15:54 | 37.17752 | -4.17030 | 41153 ft | 460 kts | 21° |
| 2026-04-23 15:54 | 37.20678 | -4.15416 | 41415 ft | 459 kts | 21° |
| 2026-04-23 15:54 | 37.23601 | -4.13803 | 41663 ft | 459 kts | 21° |
| 2026-04-23 15:54 | 37.26525 | -4.12186 | 41889 ft | 459 kts | 21° |
| 2026-04-23 15:55 | 37.29457 | -4.10565 | 41964 ft | 463 kts | 21° |
| 2026-04-23 15:55 | 37.35414 | -4.07265 | 41967 ft | 473 kts | 21° |
| 2026-04-23 15:56 | 37.41501 | -4.03888 | 41975 ft | 483 kts | 21° |
| 2026-04-23 15:56 | 37.47672 | -4.00457 | 41976 ft | 492 kts | 21° |
| 2026-04-23 15:57 | 37.53982 | -3.96943 | 41967 ft | 499 kts | 21° |
| 2026-04-23 15:57 | 37.60281 | -3.93426 | 41967 ft | 491 kts | 21° |
| 2026-04-23 15:58 | 37.66495 | -3.89954 | 41965 ft | 488 kts | 21° |
| 2026-04-23 15:58 | 37.72732 | -3.86461 | 41966 ft | 492 kts | 21° |
| 2026-04-23 15:59 | 37.79003 | -3.82942 | 41959 ft | 493 kts | 22° |
| 2026-04-23 15:59 | 37.85253 | -3.79431 | 41960 ft | 490 kts | 22° |
| 2026-04-23 16:00 | 37.91476 | -3.75925 | 41958 ft | 488 kts | 22° |
| 2026-04-23 16:00 | 37.97671 | -3.72431 | 41952 ft | 487 kts | 22° |
| 2026-04-23 16:01 | 38.03876 | -3.68923 | 41951 ft | 490 kts | 22° |
| 2026-04-23 16:01 | 38.10114 | -3.65391 | 41951 ft | 492 kts | 22° |
| 2026-04-23 16:02 | 38.16528 | -3.62537 | 41948 ft | 486 kts | 8° |
| 2026-04-23 16:02 | 38.23204 | -3.61716 | 41949 ft | 480 kts | 1° |
| 2026-04-23 16:03 | 38.29809 | -3.61063 | 41947 ft | 479 kts | 1° |
| 2026-04-23 16:03 | 38.36481 | -3.60427 | 41949 ft | 483 kts | 1° |
| 2026-04-23 16:04 | 38.43205 | -3.59769 | 41950 ft | 485 kts | 1° |
| 2026-04-23 16:04 | 38.49908 | -3.59121 | 41945 ft | 481 kts | 1° |
| 2026-04-23 16:05 | 38.55438 | -3.58581 | 41946 ft | 478 kts | 1° |
| 2026-04-23 16:05 | 38.63215 | -3.57825 | 41948 ft | 481 kts | 1° |
| 2026-04-23 16:06 | 38.69917 | -3.57169 | 41951 ft | 484 kts | 1° |
| 2026-04-23 16:06 | 38.76628 | -3.56512 | 41953 ft | 482 kts | 1° |
| 2026-04-23 16:07 | 38.83299 | -3.55858 | 41951 ft | 479 kts | 1° |
| 2026-04-23 16:07 | 38.89943 | -3.55206 | 41949 ft | 479 kts | 1° |
| 2026-04-23 16:08 | 38.96617 | -3.54549 | 41954 ft | 481 kts | 1° |
| 2026-04-23 16:08 | 39.03268 | -3.53899 | 41954 ft | 483 kts | 1° |
| 2026-04-23 16:09 | 39.09978 | -3.53233 | 41960 ft | 483 kts | 1° |
| 2026-04-23 16:09 | 39.16662 | -3.52568 | 41964 ft | 481 kts | 1° |
| 2026-04-23 16:10 | 39.23359 | -3.51891 | 41969 ft | 479 kts | 1° |
| 2026-04-23 16:10 | 39.29993 | -3.51236 | 41973 ft | 478 kts | 1° |
| 2026-04-23 16:11 | 39.36595 | -3.50575 | 41980 ft | 480 kts | 1° |
| 2026-04-23 16:11 | 39.43274 | -3.49907 | 41985 ft | 482 kts | 1° |
| 2026-04-23 16:12 | 39.49950 | -3.49236 | 41987 ft | 480 kts | 1° |
| 2026-04-23 16:12 | 39.56593 | -3.48569 | 41994 ft | 478 kts | 1° |
| 2026-04-23 16:13 | 39.63206 | -3.47904 | 41996 ft | 476 kts | 1° |
| 2026-04-23 16:13 | 39.73116 | -3.46905 | 42001 ft | 478 kts | 1° |
| 2026-04-23 16:14 | 39.79757 | -3.46092 | 42003 ft | 482 kts | 6° |
| 2026-04-23 16:14 | 39.86383 | -3.44728 | 41996 ft | 481 kts | 6° |
| 2026-04-23 16:15 | 39.92973 | -3.43436 | 41998 ft | 477 kts | 6° |
| 2026-04-23 16:15 | 39.99524 | -3.42109 | 41995 ft | 476 kts | 6° |
| 2026-04-23 16:16 | 40.06093 | -3.40799 | 42002 ft | 479 kts | 6° |
| 2026-04-23 16:16 | 40.12695 | -3.39464 | 41996 ft | 480 kts | 6° |
| 2026-04-23 16:17 | 40.19280 | -3.38139 | 41998 ft | 478 kts | 6° |
| 2026-04-23 16:17 | 40.25828 | -3.36815 | 42002 ft | 475 kts | 6° |
| 2026-04-23 16:18 | 40.32352 | -3.35496 | 41999 ft | 474 kts | 6° |
| 2026-04-23 16:18 | 40.38892 | -3.34169 | 42009 ft | 477 kts | 6° |
| 2026-04-23 16:19 | 40.45471 | -3.32832 | 42007 ft | 479 kts | 6° |
| 2026-04-23 16:19 | 40.52041 | -3.31495 | 42000 ft | 476 kts | 6° |
| 2026-04-23 16:20 | 40.58558 | -3.30165 | 42002 ft | 473 kts | 6° |
| 2026-04-23 16:20 | 40.65068 | -3.28835 | 42004 ft | 474 kts | 6° |
| 2026-04-23 16:21 | 40.71610 | -3.27495 | 42013 ft | 477 kts | 6° |
| 2026-04-23 16:21 | 40.78122 | -3.26159 | 42015 ft | 476 kts | 6° |
| 2026-04-23 16:22 | 40.84664 | -3.24812 | 42015 ft | 475 kts | 6° |
| 2026-04-23 16:22 | 40.91182 | -3.23385 | 42017 ft | 475 kts | 7° |
| 2026-04-23 16:23 | 40.97679 | -3.21906 | 42020 ft | 473 kts | 6° |
| 2026-04-23 16:23 | 41.04159 | -3.20473 | 42017 ft | 471 kts | 7° |
| 2026-04-23 16:24 | 41.10632 | -3.19007 | 42011 ft | 473 kts | 7° |
| 2026-04-23 16:24 | 41.17135 | -3.17553 | 42015 ft | 475 kts | 7° |
| 2026-04-23 16:25 | 41.23663 | -3.16076 | 42008 ft | 476 kts | 7° |
| 2026-04-23 16:25 | 41.30166 | -3.14612 | 42012 ft | 472 kts | 7° |
| 2026-04-23 16:26 | 41.36623 | -3.13148 | 42008 ft | 470 kts | 7° |
| 2026-04-23 16:26 | 41.43090 | -3.11686 | 42004 ft | 472 kts | 7° |
| 2026-04-23 16:27 | 41.49584 | -3.10208 | 42001 ft | 474 kts | 7° |
| 2026-04-23 16:27 | 41.56093 | -3.08727 | 41997 ft | 473 kts | 7° |
| 2026-04-23 16:28 | 41.62564 | -3.07250 | 41992 ft | 470 kts | 7° |
| 2026-04-23 16:28 | 41.69001 | -3.05780 | 41996 ft | 470 kts | 7° |
| 2026-04-23 16:29 | 41.75457 | -3.04301 | 41999 ft | 472 kts | 7° |
| 2026-04-23 16:29 | 41.81899 | -3.02818 | 42002 ft | 474 kts | 7° |
| 2026-04-23 16:30 | 41.88403 | -3.01320 | 41999 ft | 473 kts | 7° |
| 2026-04-23 16:30 | 41.94863 | -2.99828 | 42001 ft | 469 kts | 7° |
| 2026-04-23 16:31 | 42.01286 | -2.98344 | 41998 ft | 469 kts | 7° |
| 2026-04-23 16:31 | 42.07744 | -2.96845 | 41999 ft | 472 kts | 7° |
| 2026-04-23 16:32 | 42.14237 | -2.95338 | 42005 ft | 473 kts | 7° |
| 2026-04-23 16:32 | 42.20700 | -2.93833 | 42001 ft | 470 kts | 7° |
| 2026-04-23 16:33 | 42.27127 | -2.92333 | 42002 ft | 468 kts | 7° |
| 2026-04-23 16:33 | 42.33554 | -2.90833 | 42000 ft | 469 kts | 7° |
| 2026-04-23 16:34 | 42.38896 | -2.89579 | 42001 ft | 469 kts | 7° |
| 2026-04-23 16:34 | 42.45334 | -2.88210 | 42002 ft | 466 kts | 1° |
| 2026-04-23 16:35 | 42.51788 | -2.88413 | 42003 ft | 464 kts | 355° |
| 2026-04-23 16:35 | 42.59281 | -2.88787 | 42012 ft | 463 kts | 355° |
| 2026-04-23 16:36 | 42.64681 | -2.89077 | 42022 ft | 463 kts | 355° |
| 2026-04-23 16:36 | 42.71126 | -2.89409 | 42034 ft | 463 kts | 355° |
| 2026-04-23 16:37 | 42.77576 | -2.89748 | 42041 ft | 464 kts | 355° |
| 2026-04-23 16:37 | 42.84034 | -2.90086 | 42045 ft | 465 kts | 355° |
| 2026-04-23 16:38 | 42.90493 | -2.90424 | 42047 ft | 465 kts | 355° |
| 2026-04-23 16:38 | 42.96917 | -2.90763 | 42039 ft | 465 kts | 355° |
| 2026-04-23 16:39 | 43.03441 | -2.91106 | 42025 ft | 466 kts | 355° |
| 2026-04-23 16:39 | 43.09900 | -2.91447 | 41980 ft | 464 kts | 355° |
| 2026-04-23 16:40 | 43.16337 | -2.91788 | 41975 ft | 462 kts | 355° |
| 2026-04-23 16:40 | 43.22708 | -2.92125 | 41977 ft | 460 kts | 355° |
| 2026-04-23 16:41 | 43.29115 | -2.92476 | 41976 ft | 462 kts | 354° |
| 2026-04-23 16:41 | 43.35396 | -2.94097 | 41979 ft | 461 kts | 344° |
| 2026-04-23 16:42 | 43.41662 | -2.96027 | 41973 ft | 461 kts | 345° |
| 2026-04-23 16:42 | 43.47896 | -2.97986 | 41970 ft | 458 kts | 344° |
| 2026-04-23 16:43 | 43.54099 | -2.99921 | 41977 ft | 456 kts | 345° |
| 2026-04-23 16:43 | 43.60297 | -3.01869 | 41968 ft | 458 kts | 344° |
| 2026-04-23 16:44 | 43.66530 | -3.03826 | 41981 ft | 461 kts | 345° |
| 2026-04-23 16:44 | 43.72814 | -3.05661 | 41981 ft | 461 kts | 346° |
| 2026-04-23 16:45 | 43.79073 | -3.07493 | 41980 ft | 458 kts | 345° |
| 2026-04-23 16:45 | 43.85305 | -3.09276 | 41990 ft | 456 kts | 346° |
| 2026-04-23 16:46 | 43.91525 | -3.11082 | 41998 ft | 458 kts | 346° |
| 2026-04-23 16:46 | 43.97750 | -3.12881 | 42008 ft | 461 kts | 346° |
| 2026-04-23 16:47 | 44.04133 | -3.14331 | 42002 ft | 465 kts | 355° |
| 2026-04-23 16:47 | 44.10521 | -3.13387 | 42010 ft | 467 kts | 10° |
| 2026-04-23 16:48 | 44.16857 | -3.11436 | 42014 ft | 465 kts | 9° |
| 2026-04-23 16:48 | 44.23182 | -3.09496 | 42015 ft | 467 kts | 10° |
| 2026-04-23 16:49 | 44.29545 | -3.07532 | 42021 ft | 470 kts | 10° |
| 2026-04-23 16:49 | 44.35934 | -3.05562 | 42027 ft | 469 kts | 10° |
| 2026-04-23 16:50 | 44.42292 | -3.03592 | 42026 ft | 467 kts | 10° |
| 2026-04-23 16:50 | 44.48627 | -3.01629 | 42025 ft | 465 kts | 10° |
| 2026-04-23 16:51 | 44.54947 | -2.99664 | 42027 ft | 466 kts | 10° |
| 2026-04-23 16:51 | 44.61297 | -2.97686 | 42030 ft | 469 kts | 10° |
| 2026-04-23 16:52 | 44.67684 | -2.95692 | 42033 ft | 471 kts | 10° |
| 2026-04-23 16:52 | 44.74060 | -2.93696 | 42034 ft | 468 kts | 10° |
| 2026-04-23 16:53 | 44.80390 | -2.91712 | 42038 ft | 465 kts | 10° |
| 2026-04-23 16:53 | 44.86710 | -2.89725 | 42043 ft | 467 kts | 10° |
| 2026-04-23 16:54 | 44.93066 | -2.87723 | 42045 ft | 469 kts | 10° |
| 2026-04-23 16:54 | 44.99453 | -2.85706 | 42047 ft | 469 kts | 10° |
| 2026-04-23 16:55 | 45.05812 | -2.83693 | 42049 ft | 467 kts | 10° |
| 2026-04-23 16:55 | 45.12130 | -2.81689 | 42048 ft | 464 kts | 10° |
| 2026-04-23 16:56 | 45.18403 | -2.79696 | 42050 ft | 466 kts | 10° |
| 2026-04-23 16:56 | 45.24753 | -2.77672 | 42055 ft | 469 kts | 10° |
| 2026-04-23 16:57 | 45.31128 | -2.75636 | 42056 ft | 469 kts | 10° |
| 2026-04-23 16:57 | 45.37473 | -2.73604 | 42057 ft | 467 kts | 10° |
| 2026-04-23 16:58 | 45.43796 | -2.71576 | 42062 ft | 464 kts | 10° |
| 2026-04-23 16:58 | 45.50103 | -2.69548 | 42070 ft | 466 kts | 10° |
| 2026-04-23 16:59 | 45.56444 | -2.67504 | 42070 ft | 469 kts | 10° |
| 2026-04-23 16:59 | 45.62819 | -2.65444 | 42072 ft | 469 kts | 10° |
| 2026-04-23 17:00 | 45.69165 | -2.63389 | 42072 ft | 467 kts | 10° |
| 2026-04-23 17:00 | 45.75487 | -2.61337 | 42079 ft | 464 kts | 9° |
| 2026-04-23 17:01 | 45.81796 | -2.59285 | 42082 ft | 466 kts | 9° |
| 2026-04-23 17:01 | 45.88145 | -2.57214 | 42083 ft | 469 kts | 9° |
| 2026-04-23 17:02 | 45.94519 | -2.55131 | 42088 ft | 469 kts | 9° |
| 2026-04-23 17:02 | 46.00874 | -2.53048 | 42088 ft | 466 kts | 9° |
| 2026-04-23 17:03 | 46.07141 | -2.50990 | 42096 ft | 465 kts | 9° |
| 2026-04-23 17:03 | 46.13510 | -2.48895 | 42093 ft | 467 kts | 9° |
| 2026-04-23 17:04 | 46.19897 | -2.47200 | 42102 ft | 466 kts | 2° |
| 2026-04-23 17:04 | 46.26309 | -2.46164 | 42105 ft | 467 kts | 4° |
| 2026-04-23 17:05 | 46.32760 | -2.45099 | 42111 ft | 466 kts | 3° |
| 2026-04-23 17:05 | 46.39196 | -2.44054 | 42113 ft | 465 kts | 3° |
| 2026-04-23 17:06 | 46.45619 | -2.42993 | 42114 ft | 464 kts | 3° |
| 2026-04-23 17:06 | 46.52026 | -2.41942 | 42114 ft | 463 kts | 3° |
| 2026-04-23 17:07 | 46.58433 | -2.40882 | 42118 ft | 463 kts | 3° |
| 2026-04-23 17:07 | 46.64857 | -2.39822 | 42116 ft | 466 kts | 3° |
| 2026-04-23 17:08 | 46.71318 | -2.38750 | 42117 ft | 469 kts | 3° |
| 2026-04-23 17:08 | 46.77803 | -2.37672 | 42117 ft | 468 kts | 3° |
| 2026-04-23 17:09 | 46.84259 | -2.36596 | 42121 ft | 466 kts | 3° |
| 2026-04-23 17:09 | 46.90669 | -2.35266 | 42112 ft | 466 kts | 5° |
| 2026-04-23 17:10 | 46.97097 | -2.33855 | 42118 ft | 468 kts | 5° |
| 2026-04-23 17:10 | 47.03560 | -2.32417 | 42123 ft | 471 kts | 5° |
| 2026-04-23 17:11 | 47.10046 | -2.30975 | 42127 ft | 471 kts | 5° |
| 2026-04-23 17:11 | 47.16462 | -2.29543 | 42137 ft | 468 kts | 5° |
| 2026-04-23 17:12 | 47.22889 | -2.28107 | 42131 ft | 467 kts | 5° |
| 2026-04-23 17:12 | 47.29333 | -2.26664 | 42136 ft | 470 kts | 5° |
| 2026-04-23 17:13 | 47.35818 | -2.25207 | 42139 ft | 473 kts | 5° |
| 2026-04-23 17:13 | 47.42311 | -2.23743 | 42136 ft | 471 kts | 5° |
| 2026-04-23 17:14 | 47.48773 | -2.22285 | 42140 ft | 469 kts | 5° |
| 2026-04-23 17:14 | 47.55206 | -2.20829 | 42138 ft | 467 kts | 5° |
| 2026-04-23 17:15 | 47.61640 | -2.19370 | 42142 ft | 469 kts | 5° |
| 2026-04-23 17:15 | 47.68101 | -2.17899 | 42155 ft | 471 kts | 6° |
| 2026-04-23 17:16 | 47.74595 | -2.16420 | 42154 ft | 472 kts | 6° |
| 2026-04-23 17:16 | 47.81062 | -2.14939 | 42156 ft | 469 kts | 6° |
| 2026-04-23 17:17 | 47.87487 | -2.13468 | 42168 ft | 466 kts | 6° |
| 2026-04-23 17:17 | 47.93903 | -2.11994 | 42168 ft | 468 kts | 6° |
| 2026-04-23 17:18 | 48.03593 | -2.09761 | 42178 ft | 471 kts | 6° |
| 2026-04-23 17:19 | 48.10061 | -2.08264 | 42185 ft | 469 kts | 6° |
| 2026-04-23 17:19 | 48.16492 | -2.06774 | 42182 ft | 466 kts | 6° |
| 2026-04-23 17:20 | 48.22896 | -2.05285 | 42182 ft | 465 kts | 6° |
| 2026-04-23 17:21 | 48.35716 | -2.02295 | 42187 ft | 470 kts | 6° |
| 2026-04-23 17:21 | 48.45387 | -2.00029 | 42195 ft | 466 kts | 6° |
| 2026-04-23 17:22 | 48.54966 | -1.97776 | 42188 ft | 465 kts | 6° |
| 2026-04-23 17:23 | 48.61411 | -1.96257 | 41666 ft | 474 kts | 6° |
| 2026-04-23 17:23 | 48.64648 | -1.95488 | 41138 ft | 466 kts | 6° |
| 2026-04-23 17:23 | 48.70887 | -1.94006 | 40107 ft | 443 kts | 6° |
| 2026-04-23 17:24 | 48.72890 | -1.93534 | 39777 ft | 436 kts | 5° |
| 2026-04-23 17:24 | 48.75857 | -1.92829 | 39287 ft | 427 kts | 5° |
| 2026-04-23 17:24 | 48.81605 | -1.91461 | 38189 ft | 411 kts | 5° |
| 2026-04-23 17:25 | 48.87217 | -1.90127 | 37046 ft | 409 kts | 5° |
| 2026-04-23 17:25 | 48.90053 | -1.89452 | 36504 ft | 416 kts | 5° |
| 2026-04-23 17:26 | 48.95856 | -1.88060 | 35476 ft | 425 kts | 5° |
| 2026-04-23 17:26 | 49.01691 | -1.86659 | 34476 ft | 426 kts | 5° |
| 2026-04-23 17:27 | 49.07817 | -1.85196 | 33306 ft | 455 kts | 7° |
| 2026-04-23 17:27 | 49.10911 | -1.84438 | 32774 ft | 445 kts | 7° |
| 2026-04-23 17:27 | 49.13942 | -1.83701 | 32241 ft | 441 kts | 6° |
| 2026-04-23 17:27 | 49.16991 | -1.82975 | 31729 ft | 446 kts | 6° |
| 2026-04-23 17:28 | 49.20066 | -1.82237 | 31221 ft | 449 kts | 6° |
| 2026-04-23 17:28 | 49.23161 | -1.81482 | 30722 ft | 451 kts | 6° |
| 2026-04-23 17:28 | 49.26258 | -1.80727 | 30221 ft | 451 kts | 6° |
| 2026-04-23 17:28 | 49.29356 | -1.79978 | 29738 ft | 448 kts | 6° |
| 2026-04-23 17:29 | 49.35541 | -1.78477 | 29772 ft | 456 kts | 7° |
| 2026-04-23 17:30 | 49.44868 | -1.76198 | 29814 ft | 451 kts | 7° |
| 2026-04-23 17:30 | 49.54191 | -1.73914 | 29837 ft | 453 kts | 7° |
| 2026-04-23 17:31 | 49.60385 | -1.72488 | 29835 ft | 447 kts | 2° |
| 2026-04-23 17:31 | 49.66604 | -1.72005 | 29842 ft | 448 kts | 1° |
| 2026-04-23 17:32 | 49.72785 | -1.71440 | 29847 ft | 448 kts | 1° |
| 2026-04-23 17:32 | 49.75941 | -1.71199 | 29681 ft | 450 kts | 1° |
| 2026-04-23 17:32 | 49.79076 | -1.70938 | 29100 ft | 448 kts | 1° |
| 2026-04-23 17:33 | 49.82125 | -1.70665 | 28521 ft | 443 kts | 1° |
| 2026-04-23 17:33 | 49.85205 | -1.70401 | 27932 ft | 445 kts | 1° |
| 2026-04-23 17:33 | 49.88345 | -1.70144 | 27339 ft | 447 kts | 1° |
| 2026-04-23 17:33 | 49.91412 | -1.69886 | 26756 ft | 447 kts | 2° |
| 2026-04-23 17:34 | 49.94472 | -1.69619 | 26171 ft | 431 kts | 2° |
| 2026-04-23 17:34 | 49.97376 | -1.69337 | 25625 ft | 406 kts | 4° |
| 2026-04-23 17:34 | 50.02576 | -1.67365 | 24607 ft | 368 kts | 19° |
| 2026-04-23 17:35 | 50.04876 | -1.65816 | 24140 ft | 353 kts | 22° |
| 2026-04-23 17:35 | 50.09196 | -1.62891 | 23201 ft | 325 kts | 22° |
| 2026-04-23 17:35 | 50.11237 | -1.61495 | 22774 ft | 317 kts | 22° |
| 2026-04-23 17:36 | 50.13257 | -1.60110 | 22363 ft | 317 kts | 22° |
| 2026-04-23 17:36 | 50.15284 | -1.58724 | 21947 ft | 320 kts | 23° |
| 2026-04-23 17:36 | 50.17328 | -1.57325 | 21520 ft | 322 kts | 24° |
| 2026-04-23 17:36 | 50.19378 | -1.55919 | 21102 ft | 322 kts | 24° |
| 2026-04-23 17:37 | 50.21480 | -1.54476 | 20670 ft | 344 kts | 25° |
| 2026-04-23 17:37 | 50.23735 | -1.52925 | 20200 ft | 359 kts | 25° |
| 2026-04-23 17:37 | 50.28395 | -1.49719 | 19245 ft | 372 kts | 26° |
| 2026-04-23 17:38 | 50.30757 | -1.48093 | 18756 ft | 370 kts | 27° |
| 2026-04-23 17:38 | 50.33103 | -1.46478 | 18236 ft | 367 kts | 27° |
| 2026-04-23 17:38 | 50.35429 | -1.44867 | 17751 ft | 364 kts | 27° |
| 2026-04-23 17:38 | 50.37738 | -1.43271 | 17271 ft | 362 kts | 27° |
| 2026-04-23 17:39 | 50.40034 | -1.41684 | 16791 ft | 360 kts | 27° |
| 2026-04-23 17:39 | 50.42287 | -1.40122 | 16327 ft | 357 kts | 27° |
| 2026-04-23 17:39 | 50.44556 | -1.38547 | 15858 ft | 355 kts | 27° |
| 2026-04-23 17:39 | 50.46808 | -1.36985 | 15389 ft | 353 kts | 27° |
| 2026-04-23 17:40 | 50.49041 | -1.35433 | 14928 ft | 350 kts | 27° |
| 2026-04-23 17:40 | 50.51247 | -1.33856 | 14465 ft | 346 kts | 30° |
| 2026-04-23 17:40 | 50.53237 | -1.31790 | 14001 ft | 341 kts | 41° |
| 2026-04-23 17:40 | 50.55044 | -1.29403 | 13542 ft | 337 kts | 43° |
| 2026-04-23 17:41 | 50.56843 | -1.27051 | 13096 ft | 335 kts | 42° |
| 2026-04-23 17:41 | 50.60407 | -1.22387 | 12217 ft | 332 kts | 43° |
| 2026-04-23 17:41 | 50.62176 | -1.20057 | 11780 ft | 330 kts | 43° |
| 2026-04-23 17:42 | 50.65769 | -1.15683 | 11337 ft | 321 kts | 37° |
| 2026-04-23 17:42 | 50.67616 | -1.13672 | 11332 ft | 318 kts | 38° |
| 2026-04-23 17:42 | 50.69367 | -1.11723 | 11197 ft | 298 kts | 38° |
| 2026-04-23 17:43 | 50.71011 | -1.09900 | 11001 ft | 280 kts | 38° |
| 2026-04-23 17:43 | 50.72564 | -1.08183 | 10809 ft | 268 kts | 38° |
| 2026-04-23 17:43 | 50.74092 | -1.06491 | 10605 ft | 270 kts | 39° |
| 2026-04-23 17:43 | 50.75637 | -1.04775 | 10379 ft | 274 kts | 38° |
| 2026-04-23 17:44 | 50.77106 | -1.02885 | 10136 ft | 270 kts | 49° |
| 2026-04-23 17:44 | 50.78243 | -1.00566 | 9898 ft | 265 kts | 60° |
| 2026-04-23 17:44 | 50.79816 | -0.95349 | 9458 ft | 262 kts | 66° |
| 2026-04-23 17:45 | 50.80576 | -0.92778 | 9235 ft | 261 kts | 67° |
| 2026-04-23 17:45 | 50.82090 | -0.87548 | 8792 ft | 261 kts | 67° |
| 2026-04-23 17:45 | 50.82846 | -0.84938 | 8572 ft | 260 kts | 67° |
| 2026-04-23 17:46 | 50.84591 | -0.79951 | 8132 ft | 262 kts | 52° |
| 2026-04-23 17:46 | 50.85912 | -0.77963 | 7905 ft | 263 kts | 40° |
| 2026-04-23 17:46 | 50.87498 | -0.76488 | 7686 ft | 267 kts | 27° |
| 2026-04-23 17:47 | 50.89281 | -0.75613 | 7462 ft | 271 kts | 14° |
| 2026-04-23 17:47 | 50.91171 | -0.75424 | 7229 ft | 274 kts | 1° |
| 2026-04-23 17:47 | 50.94890 | -0.76873 | 6774 ft | 276 kts | 346° |
| 2026-04-23 17:48 | 50.96726 | -0.77746 | 6527 ft | 275 kts | 347° |
| 2026-04-23 17:48 | 50.98554 | -0.78616 | 6291 ft | 274 kts | 347° |
| 2026-04-23 17:48 | 51.00377 | -0.79470 | 6050 ft | 272 kts | 350° |
| 2026-04-23 17:48 | 51.02242 | -0.79698 | 5823 ft | 267 kts | 7° |
| 2026-04-23 17:49 | 51.04069 | -0.79308 | 5595 ft | 265 kts | 13° |
| 2026-04-23 17:49 | 51.05893 | -0.78876 | 5372 ft | 265 kts | 12° |
| 2026-04-23 17:49 | 51.07716 | -0.78473 | 5143 ft | 264 kts | 12° |
| 2026-04-23 17:49 | 51.09515 | -0.77992 | 4909 ft | 261 kts | 15° |
| 2026-04-23 17:50 | 51.11278 | -0.77413 | 4689 ft | 255 kts | 15° |
| 2026-04-23 17:50 | 51.14608 | -0.76321 | 4258 ft | 234 kts | 20° |
| 2026-04-23 17:50 | 51.16138 | -0.75574 | 4052 ft | 226 kts | 21° |
| 2026-04-23 17:51 | 51.17606 | -0.74793 | 3862 ft | 217 kts | 30° |
| 2026-04-23 17:51 | 51.18735 | -0.73297 | 3593 ft | 212 kts | 47° |
| 2026-04-23 17:51 | 51.21539 | -0.72386 | 2995 ft | 233 kts | 334° |
| 2026-04-23 17:52 | 51.22567 | -0.74286 | 2984 ft | 229 kts | 293° |
| 2026-04-23 17:52 | 51.22518 | -0.79086 | 2989 ft | 210 kts | 262° |
| 2026-04-23 17:52 | 51.22375 | -0.81390 | 2991 ft | 209 kts | 264° |
| 2026-04-23 17:53 | 51.22083 | -0.86034 | 2990 ft | 214 kts | 264° |
| 2026-04-23 17:53 | 51.21942 | -0.88400 | 2995 ft | 214 kts | 264° |
| 2026-04-23 17:53 | 51.21796 | -0.90752 | 2993 ft | 213 kts | 263° |
| 2026-04-23 17:54 | 51.21651 | -0.93105 | 2989 ft | 212 kts | 263° |
| 2026-04-23 17:54 | 51.21509 | -0.95414 | 2991 ft | 212 kts | 262° |
| 2026-04-23 17:54 | 51.21215 | -1.00108 | 2998 ft | 215 kts | 264° |
| 2026-04-23 17:55 | 51.20910 | -1.04808 | 2996 ft | 213 kts | 263° |
| 2026-04-23 17:55 | 51.20769 | -1.07149 | 2997 ft | 212 kts | 263° |
| 2026-04-23 17:55 | 51.20606 | -1.09495 | 2994 ft | 213 kts | 259° |
| 2026-04-23 17:56 | 51.20440 | -1.11849 | 3001 ft | 213 kts | 262° |
| 2026-04-23 17:56 | 51.20161 | -1.16506 | 2988 ft | 212 kts | 261° |
| 2026-04-23 17:56 | 51.20002 | -1.18868 | 2995 ft | 215 kts | 262° |
| 2026-04-23 17:57 | 51.19857 | -1.21219 | 2993 ft | 211 kts | 263° |
| 2026-04-23 17:57 | 51.19819 | -1.23536 | 2970 ft | 210 kts | 281° |
| 2026-04-23 17:57 | 51.21895 | -1.25846 | 2975 ft | 189 kts | 17° |
| 2026-04-23 17:58 | 51.22886 | -1.24672 | 2974 ft | 178 kts | 64° |
| 2026-04-23 17:58 | 51.22965 | -1.22769 | 2986 ft | 176 kts | 104° |
| 2026-04-23 17:58 | 51.22650 | -1.20902 | 3007 ft | 172 kts | 99° |
| 2026-04-23 17:58 | 51.22524 | -1.19018 | 3002 ft | 171 kts | 94° |
| 2026-04-23 17:59 | 51.22379 | -1.17107 | 3009 ft | 176 kts | 96° |
| 2026-04-23 17:59 | 51.22220 | -1.15173 | 3005 ft | 175 kts | 96° |
| 2026-04-23 17:59 | 51.22072 | -1.13257 | 3006 ft | 174 kts | 96° |
| 2026-04-23 17:59 | 51.21941 | -1.11347 | 3005 ft | 172 kts | 96° |
| 2026-04-23 18:00 | 51.21802 | -1.09458 | 3004 ft | 171 kts | 95° |
| 2026-04-23 18:00 | 51.21654 | -1.07579 | 3000 ft | 170 kts | 96° |
| 2026-04-23 18:00 | 51.21497 | -1.05708 | 2998 ft | 170 kts | 96° |
| 2026-04-23 18:00 | 51.21339 | -1.03838 | 3020 ft | 166 kts | 96° |
| 2026-04-23 18:01 | 51.21196 | -1.02019 | 3018 ft | 167 kts | 96° |
| 2026-04-23 18:01 | 51.21050 | -1.00135 | 3005 ft | 168 kts | 96° |
| 2026-04-23 18:01 | 51.20900 | -0.98289 | 3010 ft | 172 kts | 96° |
| 2026-04-23 18:01 | 51.20881 | -0.96391 | 3007 ft | 172 kts | 75° |
| 2026-04-23 18:02 | 51.21309 | -0.95325 | 3017 ft | 178 kts | 49° |
| 2026-04-23 18:02 | 51.22344 | -0.93275 | 2696 ft | 170 kts | 64° |
| 2026-04-23 18:02 | 51.22887 | -0.91679 | 2435 ft | 155 kts | 61° |
| 2026-04-23 18:02 | 51.23393 | -0.90275 | 2201 ft | 140 kts | 62° |
| 2026-04-23 18:03 | 51.23847 | -0.88943 | 1966 ft | 136 kts | 64° |
| 2026-04-23 18:03 | 51.24276 | -0.87631 | 1766 ft | 134 kts | 62° |
| 2026-04-23 18:03 | 51.24723 | -0.86303 | 1549 ft | 137 kts | 63° |
| 2026-04-23 18:03 | 51.25151 | -0.84984 | 1359 ft | 121 kts | 63° |
| 2026-04-23 18:04 | 51.25565 | -0.83743 | 1142 ft | 137 kts | 59° |
| 2026-04-23 18:04 | 51.25998 | -0.82450 | 918 ft | 125 kts | 61° |
| 2026-04-23 18:04 | 51.26410 | -0.81296 | 670 ft | 117 kts | 62° |
| 2026-04-23 18:04 | 51.26763 | -0.80171 | 503 ft | 111 kts | 65° |
| 2026-04-23 18:05 | 51.27097 | -0.79084 | 366 ft | 106 kts | 64° |
| 2026-04-23 18:05 | 51.27424 | -0.78100 | 222 ft | 88 kts | 59° |
| 2026-04-23 18:05 | 51.27624 | -0.77501 | 229 ft | 42 kts | 61° |
| 2026-04-23 18:05 | 51.27748 | -0.77134 | 227 ft | 21 kts | 60° |
| 2026-04-23 18:06 | 51.27897 | -0.76926 | 227 ft | 36 kts | 34° |
| 2026-04-23 18:06 | 51.28017 | -0.76798 | 229 ft | 0 kts | 34° |
| 2026-04-23 18:07 | 51.28062 | -0.76813 | 228 ft | 17 kts | 295° |
| 2026-04-23 18:08 | 51.28097 | -0.76964 | 222 ft | 29 kts | 290° |
| 2026-04-23 18:08 | 51.28182 | -0.77417 | 216 ft | 17 kts | 287° |
| 2026-04-23 18:08 | 51.28200 | -0.77539 | 214 ft | 9 kts | 282° |
| 2026-04-23 18:08 | 51.28216 | -0.77659 | 217 ft | 15 kts | 282° |
| 2026-04-23 18:09 | 51.28270 | -0.77651 | 216 ft | 12 kts | 55° |
| 2026-04-23 18:09 | 51.28275 | -0.77639 | 216 ft | 0 kts | 65° |
| 2026-04-23 18:10 | 51.28265 | -0.77602 | 214 ft | 10 kts | 130° |
| 2026-04-23 18:10 | 51.28193 | -0.77595 | 216 ft | 6 kts | 214° |
| 2026-04-23 18:11 | 51.28153 | -0.77635 | 217 ft | 3 kts | 217° |
| 2026-04-23 18:11 | 51.28150 | -0.77657 | 217 ft | 0 kts | 307° |